Terminal Aerodrome Forecast
Issued by NWS

Home | Current Version | Previous Version | Text Only | Print | Product List | Glossary On
Versions: 1 2 3 4 5 6 7 8 9 10 11 12 13 14 15 16 17 18 19 20 21 22 23 24 25
000
FTUS44 KHGX 160814 AAA
TAFIAH
TAF AMD
KIAH 160814Z 1608/1712 34013G23KT 5SM RA BR BKN006 OVC016
     FM161200 36018G28KT 6SM -RAPL BR SCT008 OVC012
     FM161400 35017G27KT 5SM -FZRAPL BR OVC012
     FM161700 36019KT 5SM -SNPL BR OVC015
     FM162000 36016KT P6SM -SN OVC025
     FM162300 35012KT P6SM OVC080
     FM170900 35006KT P6SM SKC=

USA.gov is the U.S. government's official web portal to all federal, state and local government web resources and services.